createdAt,value
2023-04-15T00:00:58.581Z,1.43
2023-04-15T00:04:17.239Z,1.28
2023-04-15T00:07:36.606Z,1.10
2023-04-15T00:11:00.904Z,2.70
2023-04-15T00:14:22.356Z,2.08
2023-04-15T00:17:40.788Z,2.43
2023-04-15T00:21:01.196Z,0.80
2023-04-15T00:24:18.646Z,1.23
2023-04-15T00:27:42.421Z,1.20
2023-04-15T00:31:06.898Z,1.15
2023-04-15T00:34:23.946Z,2.03
2023-04-15T00:37:49.470Z,1.23
2023-04-15T00:41:16.088Z,1.23
2023-04-15T00:44:35.207Z,1.20
2023-04-15T00:54:17.153Z,1.53
2023-04-15T00:57:37.152Z,1.23
2023-04-15T01:00:57.875Z,1.55
2023-04-15T01:04:18.936Z,1.38
2023-04-15T01:07:36.160Z,2.87
2023-04-15T01:10:53.016Z,1.23
2023-04-15T01:17:29.243Z,0.98
2023-04-15T01:20:53.952Z,1.33
2023-04-15T01:24:18.649Z,1.68
2023-04-15T01:27:37.776Z,2.35
2023-04-15T01:40:22.428Z,2.65
2023-04-15T01:43:44.516Z,2.65
2023-04-15T01:47:08.478Z,1.73
2023-04-15T01:53:32.227Z,2.33
2023-04-15T01:56:53.660Z,1.87
2023-04-15T02:00:18.603Z,2.28
2023-04-15T02:03:45.317Z,2.20
2023-04-15T02:07:03.230Z,1.50
2023-04-15T02:10:23.255Z,3.53
2023-04-15T02:13:44.734Z,1.78
2023-04-15T02:17:04.523Z,1.78
2023-04-15T02:20:23.367Z,3.23
2023-04-15T02:23:39.796Z,2.90
2023-04-15T02:26:58.450Z,2.35
2023-04-15T02:30:16.709Z,1.13
2023-04-15T02:33:33.449Z,2.08
2023-04-15T02:36:53.783Z,1.83
2023-04-15T02:40:12.127Z,2.88
2023-04-15T02:43:28.574Z,3.03
2023-04-15T02:46:47.321Z,2.20
2023-04-15T02:50:04.195Z,2.28
2023-04-15T02:53:22.445Z,2.30
2023-04-15T02:56:41.471Z,4.35
2023-04-15T02:59:59.870Z,3.08
2023-04-15T03:03:22.536Z,2.30
2023-04-15T03:06:39.745Z,2.25
2023-04-15T03:09:57.944Z,5.08
2023-04-15T03:13:17.000Z,2.85
2023-04-15T03:16:33.514Z,3.03
2023-04-15T03:22:53.429Z,5.23
2023-04-15T03:26:13.734Z,2.35
2023-04-15T03:29:30.484Z,2.75
2023-04-15T03:32:48.277Z,4.80
2023-04-15T03:39:07.989Z,3.53
2023-04-15T03:42:24.900Z,4.45
2023-04-15T03:45:41.401Z,3.65
2023-04-15T03:48:58.913Z,4.30
2023-04-15T03:52:16.356Z,2.70
2023-04-15T03:55:32.747Z,4.28
2023-04-15T03:58:49.094Z,3.90
2023-04-15T04:02:05.760Z,3.10
2023-04-15T04:05:24.970Z,3.55
2023-04-15T04:08:41.416Z,7.33
2023-04-15T04:11:59.492Z,8.63
2023-04-15T04:15:18.770Z,7.23
2023-04-15T04:18:36.411Z,5.48
2023-04-15T04:21:53.128Z,8.53
2023-04-15T04:25:11.167Z,6.13
2023-04-15T04:28:29.756Z,6.98
2023-04-15T04:31:49.665Z,8.45
2023-04-15T04:38:10.914Z,8.45
2023-04-15T04:41:29.401Z,6.80
2023-04-15T04:44:47.541Z,7.70
2023-04-15T04:48:06.049Z,9.15
2023-04-15T04:51:25.090Z,8.68
2023-04-15T04:54:42.569Z,14.93
2023-04-15T04:58:03.705Z,9.53
2023-04-15T05:01:25.043Z,8.90
2023-04-15T05:07:48.293Z,6.08
2023-04-15T05:11:18.455Z,14.10
2023-04-15T05:14:41.144Z,10.43
2023-04-15T05:18:00.708Z,6.03
2023-04-15T05:24:24.920Z,8.78
2023-04-15T05:27:48.819Z,8.35
2023-04-15T05:31:05.972Z,8.95
2023-04-15T05:40:31.814Z,4.35
2023-04-15T05:43:52.721Z,2.88
2023-04-15T05:47:10.729Z,3.43
2023-04-15T05:50:27.430Z,2.23
2023-04-15T05:53:44.196Z,4.38
2023-04-15T05:57:03.779Z,3.10
2023-04-15T06:00:23.231Z,2.20
2023-04-15T06:03:39.942Z,3.75
2023-04-15T06:06:56.652Z,3.70
2023-04-15T06:10:17.035Z,1.60
2023-04-15T06:13:35.040Z,3.75
2023-04-15T06:17:00.050Z,3.10
2023-04-15T06:20:48.955Z,5.83
2023-04-15T06:24:17.371Z,3.58
2023-04-15T06:27:39.581Z,5.40
2023-04-15T06:30:56.658Z,3.23
2023-04-15T06:34:13.733Z,3.38
2023-04-15T06:37:35.250Z,3.98
2023-04-15T06:40:55.279Z,6.95
2023-04-15T06:44:15.509Z,4.15
2023-04-15T06:47:32.697Z,4.03
2023-04-15T06:53:53.917Z,5.10
2023-04-15T06:57:10.553Z,3.75
2023-04-15T07:00:31.877Z,5.20
2023-04-15T07:03:50.362Z,7.43
2023-04-15T07:07:07.138Z,4.43
2023-04-15T07:10:25.589Z,6.00
2023-04-15T07:13:42.387Z,5.43
2023-04-15T07:16:59.473Z,3.83
2023-04-15T07:20:21.010Z,5.25
2023-04-15T07:23:37.785Z,26.15
2023-04-15T07:26:54.276Z,8.25
2023-04-15T07:30:11.920Z,3.48
2023-04-15T07:33:30.826Z,2.35
2023-04-15T07:36:50.358Z,5.15
2023-04-15T07:40:08.168Z,3.48
2023-04-15T07:43:25.535Z,3.05
2023-04-15T07:46:43.567Z,3.18
2023-04-15T07:56:06.889Z,3.65
2023-04-15T07:59:24.436Z,3.53
2023-04-15T08:02:42.611Z,5.23
2023-04-15T08:09:03.027Z,3.25
2023-04-15T08:12:19.860Z,4.53
2023-04-15T08:15:40.537Z,2.98
2023-04-15T08:18:58.708Z,3.80
2023-04-15T08:22:18.008Z,5.93
2023-04-15T08:25:35.820Z,4.08
2023-04-15T08:28:54.120Z,4.90
2023-04-15T08:32:12.121Z,4.78
2023-04-15T08:35:28.995Z,140.93
2023-04-15T08:38:46.501Z,32.70
2023-04-15T08:42:10.108Z,5.15
2023-04-15T08:45:30.426Z,4.58
2023-04-15T08:48:53.187Z,6.28
2023-04-15T08:55:18.737Z,4.23
2023-04-15T08:58:40.432Z,2.93
2023-04-15T09:02:00.694Z,3.58
2023-04-15T09:05:18.467Z,3.20
2023-04-15T09:08:35.404Z,2.65
2023-04-15T09:11:52.535Z,4.05
2023-04-15T09:15:13.880Z,2.80
2023-04-15T09:18:40.825Z,3.15
2023-04-15T09:22:10.536Z,3.18
2023-04-15T09:25:43.793Z,8.78
2023-04-15T09:29:15.653Z,5.03
2023-04-15T09:32:34.893Z,3.68
2023-04-15T09:36:04.499Z,4.75
2023-04-15T09:39:21.539Z,3.48
2023-04-15T09:42:41.428Z,2.90
2023-04-15T09:46:02.276Z,2.60
2023-04-15T09:49:22.553Z,5.13
2023-04-15T09:52:40.153Z,2.30
2023-04-15T09:56:03.464Z,2.20
2023-04-15T09:59:23.525Z,2.10
2023-04-15T10:02:43.471Z,2.43
2023-04-15T10:09:05.536Z,1.90
2023-04-15T10:12:25.586Z,1.93
2023-04-15T10:15:44.272Z,1.83
2023-04-15T10:19:10.309Z,6.98
2023-04-15T10:22:30.913Z,55.40
2023-04-15T10:25:50.011Z,5.95
2023-04-15T10:29:10.943Z,4.45
2023-04-15T10:32:33.526Z,2.13
2023-04-15T10:35:53.801Z,3.00
2023-04-15T10:42:26.367Z,2.28
2023-04-15T10:45:51.095Z,1.53
2023-04-15T10:49:05.470Z,1.83
2023-04-15T10:52:23.042Z,3.75
2023-04-15T10:55:42.116Z,2.00
2023-04-15T10:58:58.626Z,2.98
2023-04-15T11:02:16.287Z,1.43
2023-04-15T11:06:10.093Z,1.78
2023-04-15T11:09:42.421Z,3.60
2023-04-15T11:13:03.240Z,1.48
2023-04-15T11:16:20.000Z,1.25
2023-04-15T11:19:45.509Z,1.90
2023-04-15T11:23:14.089Z,3.90
2023-04-15T11:26:21.613Z,3.15
2023-04-15T11:29:40.771Z,3.60
2023-04-15T11:39:17.650Z,2.05
2023-04-15T11:42:48.680Z,2.65
2023-04-15T11:46:02.859Z,2.08
2023-04-15T11:49:19.517Z,1.85
2023-04-15T11:52:36.068Z,2.00
2023-04-15T11:55:58.100Z,2.58
2023-04-15T11:59:14.719Z,2.88
2023-04-15T12:02:38.031Z,33.18
2023-04-15T12:12:04.569Z,3.23
2023-04-15T12:15:21.560Z,2.05
2023-04-15T12:18:38.613Z,1.65
2023-04-15T12:25:04.165Z,2.10
2023-04-15T12:28:22.890Z,1.90
2023-04-15T12:31:39.681Z,2.03
2023-04-15T12:35:00.534Z,2.90
2023-04-15T12:38:19.689Z,2.28
2023-04-15T12:41:36.902Z,1.58
2023-04-15T12:44:54.597Z,2.15
2023-04-15T12:48:11.562Z,2.20
2023-04-15T12:54:32.273Z,1.88
2023-04-15T12:57:48.683Z,3.70
2023-04-15T13:01:04.970Z,4.25
2023-04-15T13:04:22.760Z,3.65
2023-04-15T13:07:39.955Z,3.08
2023-04-15T13:10:56.487Z,4.98
2023-04-15T13:14:19.334Z,2.68
2023-04-15T13:17:38.317Z,3.05
2023-04-15T13:21:14.567Z,3.53
2023-04-15T13:24:33.378Z,34.75
2023-04-15T13:27:54.879Z,21.08
2023-04-15T13:31:18.570Z,6.90
2023-04-15T13:34:37.996Z,11.38
2023-04-15T13:38:08.017Z,5.55
2023-04-15T13:41:35.914Z,4.15
2023-04-15T13:52:25.415Z,3.03
2023-04-15T13:55:43.572Z,3.55
2023-04-15T14:05:46.547Z,3.15
2023-04-15T14:09:05.554Z,1.53
2023-04-15T14:12:44.385Z,1.55
2023-04-15T14:16:23.195Z,2.65
2023-04-15T14:19:45.130Z,2.18
2023-04-15T14:26:06.003Z,4.58
2023-04-15T14:29:23.961Z,3.33
2023-04-15T14:32:40.608Z,18.98
2023-04-15T14:36:01.711Z,3.65
2023-04-15T14:42:25.295Z,2.80
2023-04-15T14:45:45.818Z,3.25
2023-04-15T14:49:17.195Z,4.05
2023-04-15T14:52:41.636Z,3.60
2023-04-15T14:56:01.597Z,4.20
2023-04-15T14:59:20.608Z,5.13
2023-04-15T15:02:39.893Z,3.28
2023-04-15T15:05:58.595Z,4.25
2023-04-15T15:09:15.281Z,6.33
2023-04-15T15:12:34.026Z,3.75
2023-04-15T15:15:51.928Z,6.08
2023-04-15T15:19:11.022Z,5.88
2023-04-15T15:25:31.707Z,4.28
2023-04-15T15:28:51.254Z,3.43
2023-04-15T15:32:09.548Z,3.90
2023-04-15T15:35:32.356Z,4.33
2023-04-15T15:38:51.392Z,5.25
2023-04-15T15:42:16.183Z,3.43
2023-04-15T15:45:38.291Z,4.48
2023-04-15T15:49:01.216Z,3.50
2023-04-15T15:55:23.074Z,4.20
2023-04-15T15:58:40.492Z,4.18
2023-04-15T16:01:57.485Z,4.10
2023-04-15T16:05:17.921Z,5.73
2023-04-15T16:11:39.429Z,6.35
2023-04-15T16:14:56.537Z,4.53
2023-04-15T16:18:17.604Z,6.00
2023-04-15T16:21:35.134Z,6.48
2023-04-15T16:25:27.698Z,5.93
2023-04-15T16:28:49.315Z,5.25
2023-04-15T16:32:10.469Z,6.08
2023-04-15T16:35:27.830Z,4.75
2023-04-15T16:38:46.380Z,4.68
2023-04-15T16:42:04.218Z,3.73
2023-04-15T16:45:24.440Z,4.98
2023-04-15T16:48:41.851Z,5.93
2023-04-15T16:52:00.763Z,6.70
2023-04-15T16:55:20.362Z,6.98
2023-04-15T16:58:37.379Z,6.35
2023-04-15T17:01:54.607Z,3.90
2023-04-15T17:05:16.782Z,4.25
2023-04-15T17:08:36.270Z,5.20
2023-04-15T17:11:55.243Z,3.38
2023-04-15T17:15:16.412Z,7.75
2023-04-15T17:18:33.910Z,4.40
2023-04-15T17:25:08.422Z,4.70
2023-04-15T17:28:26.336Z,6.48
2023-04-15T17:31:43.314Z,6.10
2023-04-15T17:35:00.889Z,9.23
2023-04-15T17:41:26.522Z,5.90
2023-04-15T17:44:43.499Z,5.68
2023-04-15T17:48:00.991Z,7.83
2023-04-15T17:51:19.099Z,5.93
2023-04-15T17:54:37.054Z,5.93
2023-04-15T17:58:04.420Z,118.60
2023-04-15T18:01:24.074Z,22.00
2023-04-15T18:04:46.389Z,13.75
2023-04-15T18:08:03.749Z,12.93
2023-04-15T18:11:21.003Z,14.98
2023-04-15T18:14:40.748Z,15.93
2023-04-15T18:18:04.885Z,17.98
2023-04-15T18:21:21.698Z,16.88
2023-04-15T18:25:02.397Z,18.63
2023-04-15T18:28:23.620Z,17.23
2023-04-15T18:31:40.308Z,19.70
2023-04-15T18:34:59.273Z,20.63
2023-04-15T18:41:31.036Z,24.55
2023-04-15T18:44:48.462Z,27.93
2023-04-15T18:48:08.175Z,19.03
2023-04-15T18:51:24.929Z,17.23
2023-04-15T18:54:41.769Z,21.13
2023-04-15T18:58:06.422Z,20.90
2023-04-15T19:01:22.868Z,18.00
2023-04-15T19:04:39.655Z,22.18
2023-04-15T19:07:59.678Z,18.93
2023-04-15T19:11:20.493Z,24.08
2023-04-15T19:14:43.461Z,24.53
2023-04-15T19:18:00.617Z,19.50
2023-04-15T19:21:25.612Z,23.38
2023-04-15T19:27:46.302Z,22.13
2023-04-15T19:31:03.873Z,22.25
2023-04-15T19:34:26.811Z,22.73
2023-04-15T19:37:43.947Z,27.23
2023-04-15T19:41:05.479Z,26.63
2023-04-15T19:44:23.060Z,24.35
2023-04-15T19:47:45.669Z,28.08
2023-04-15T19:51:05.709Z,28.30
2023-04-15T19:54:25.057Z,30.03
2023-04-15T19:57:42.784Z,25.10
2023-04-15T20:00:59.643Z,32.65
2023-04-15T20:04:20.412Z,33.10
2023-04-15T20:07:37.712Z,31.63
2023-04-15T20:10:54.289Z,55.10
2023-04-15T20:14:10.692Z,164.38
2023-04-15T20:17:27.813Z,129.48
2023-04-15T20:20:47.531Z,55.55
2023-04-15T20:24:04.058Z,34.78
2023-04-15T20:27:20.992Z,30.85
2023-04-15T20:30:38.382Z,35.25
2023-04-15T20:33:55.041Z,30.88
2023-04-15T20:37:12.736Z,32.43
2023-04-15T20:40:31.706Z,32.43
2023-04-15T20:43:48.177Z,33.78
2023-04-15T20:47:05.755Z,29.25
2023-04-15T20:50:23.132Z,33.93
2023-04-15T20:56:42.726Z,45.83
2023-04-15T20:59:59.567Z,41.90
2023-04-15T21:03:16.257Z,49.35
2023-04-15T21:06:33.096Z,55.75
2023-04-15T21:12:53.790Z,85.65
2023-04-15T21:16:10.846Z,72.10
2023-04-15T21:19:27.451Z,58.45
2023-04-15T21:28:51.394Z,35.65
2023-04-15T21:32:09.029Z,31.78
2023-04-15T21:35:25.784Z,28.18
2023-04-15T21:38:46.172Z,42.58
2023-04-15T21:42:04.143Z,43.90
2023-04-15T21:45:23.191Z,40.75
2023-04-15T21:48:41.028Z,38.03
2023-04-15T21:52:03.145Z,40.20
2023-04-15T21:55:20.514Z,39.78
2023-04-15T21:58:38.249Z,32.00
2023-04-15T22:01:55.130Z,33.38
2023-04-15T22:05:12.681Z,29.90
2023-04-15T22:08:30.123Z,23.45
2023-04-15T22:11:52.285Z,26.37
2023-04-15T22:15:10.324Z,30.28
2023-04-15T22:18:26.967Z,30.05
2023-04-15T22:21:42.956Z,27.65
2023-04-15T22:28:02.644Z,28.10
2023-04-15T22:31:19.351Z,25.43
2023-04-15T22:34:37.408Z,22.88
2023-04-15T22:37:53.768Z,28.83
2023-04-15T22:41:12.265Z,20.38
2023-04-15T22:44:28.828Z,23.43
2023-04-15T22:47:45.489Z,24.98
2023-04-15T22:51:02.207Z,25.85
2023-04-15T22:54:18.595Z,21.98
2023-04-15T22:57:35.407Z,23.63
2023-04-15T23:00:52.582Z,23.55
2023-04-15T23:04:23.272Z,27.30
2023-04-15T23:07:29.904Z,23.20
2023-04-15T23:10:46.566Z,22.20
2023-04-15T23:14:06.053Z,21.60
2023-04-15T23:17:22.733Z,22.13
2023-04-15T23:20:39.333Z,23.00
2023-04-15T23:23:56.041Z,22.98
2023-04-15T23:27:13.156Z,25.03
2023-04-15T23:30:29.640Z,22.53
2023-04-15T23:33:46.155Z,23.30
2023-04-15T23:37:04.916Z,22.45
2023-04-15T23:40:23.074Z,21.63
2023-04-15T23:43:39.803Z,23.63
2023-04-15T23:46:56.896Z,21.10
2023-04-15T23:50:18.529Z,21.77
2023-04-15T23:53:35.195Z,25.68
2023-04-15T23:56:53.325Z,22.00
